sensor_id;sensor_type;location;lat;lon;timestamp;P1;durP1;ratioP1;P2;durP2;ratioP2
7205;SDS011;3644;53.480;10.004;2023-05-07T00:00:10;12.70;;;9.33;;
7205;SDS011;3644;53.480;10.004;2023-05-07T00:02:36;17.50;;;10.13;;
7205;SDS011;3644;53.480;10.004;2023-05-07T00:05:02;12.60;;;9.27;;
7205;SDS011;3644;53.480;10.004;2023-05-07T00:07:28;12.60;;;9.33;;
7205;SDS011;3644;53.480;10.004;2023-05-07T00:09:54;17.00;;;9.17;;
7205;SDS011;3644;53.480;10.004;2023-05-07T00:12:20;13.47;;;10.00;;
7205;SDS011;3644;53.480;10.004;2023-05-07T00:14:45;18.17;;;10.60;;
7205;SDS011;3644;53.480;10.004;2023-05-07T00:17:11;13.70;;;9.30;;
7205;SDS011;3644;53.480;10.004;2023-05-07T00:19:37;12.50;;;9.53;;
7205;SDS011;3644;53.480;10.004;2023-05-07T00:22:02;14.20;;;10.50;;
7205;SDS011;3644;53.480;10.004;2023-05-07T00:24:28;13.63;;;9.70;;
7205;SDS011;3644;53.480;10.004;2023-05-07T00:26:53;13.43;;;9.60;;
7205;SDS011;3644;53.480;10.004;2023-05-07T00:29:19;15.63;;;10.43;;
7205;SDS011;3644;53.480;10.004;2023-05-07T00:31:44;14.57;;;9.70;;
7205;SDS011;3644;53.480;10.004;2023-05-07T00:34:10;11.93;;;8.73;;
7205;SDS011;3644;53.480;10.004;2023-05-07T00:36:35;11.97;;;8.87;;
7205;SDS011;3644;53.480;10.004;2023-05-07T00:39:01;8.80;;;6.33;;
7205;SDS011;3644;53.480;10.004;2023-05-07T00:41:28;12.00;;;8.03;;
7205;SDS011;3644;53.480;10.004;2023-05-07T00:43:55;11.10;;;7.70;;
7205;SDS011;3644;53.480;10.004;2023-05-07T00:46:21;16.90;;;7.80;;
7205;SDS011;3644;53.480;10.004;2023-05-07T00:48:49;9.33;;;7.23;;
7205;SDS011;3644;53.480;10.004;2023-05-07T00:51:15;10.20;;;7.80;;
7205;SDS011;3644;53.480;10.004;2023-05-07T00:53:43;10.70;;;7.10;;
7205;SDS011;3644;53.480;10.004;2023-05-07T00:56:09;12.43;;;6.47;;
7205;SDS011;3644;53.480;10.004;2023-05-07T00:58:35;12.10;;;7.50;;
7205;SDS011;3644;53.480;10.004;2023-05-07T01:01:01;8.40;;;6.70;;
7205;SDS011;3644;53.480;10.004;2023-05-07T01:03:27;8.83;;;6.53;;
7205;SDS011;3644;53.480;10.004;2023-05-07T01:05:52;11.07;;;7.73;;
7205;SDS011;3644;53.480;10.004;2023-05-07T01:08:20;8.97;;;7.03;;
7205;SDS011;3644;53.480;10.004;2023-05-07T01:10:47;10.60;;;7.70;;
7205;SDS011;3644;53.480;10.004;2023-05-07T01:13:13;17.03;;;7.03;;
7205;SDS011;3644;53.480;10.004;2023-05-07T01:15:39;8.53;;;7.20;;
7205;SDS011;3644;53.480;10.004;2023-05-07T01:18:08;11.13;;;7.53;;
7205;SDS011;3644;53.480;10.004;2023-05-07T01:20:33;9.67;;;7.33;;
7205;SDS011;3644;53.480;10.004;2023-05-07T01:22:59;11.90;;;7.70;;
7205;SDS011;3644;53.480;10.004;2023-05-07T01:25:25;10.30;;;7.10;;
7205;SDS011;3644;53.480;10.004;2023-05-07T01:27:51;15.13;;;7.93;;
7205;SDS011;3644;53.480;10.004;2023-05-07T01:30:17;8.23;;;6.33;;
7205;SDS011;3644;53.480;10.004;2023-05-07T01:32:52;7.40;;;6.30;;
7205;SDS011;3644;53.480;10.004;2023-05-07T01:35:24;7.93;;;6.80;;
7205;SDS011;3644;53.480;10.004;2023-05-07T01:37:57;7.70;;;6.90;;
7205;SDS011;3644;53.480;10.004;2023-05-07T01:40:23;8.67;;;6.97;;
7205;SDS011;3644;53.480;10.004;2023-05-07T01:42:50;11.87;;;6.87;;
7205;SDS011;3644;53.480;10.004;2023-05-07T01:45:15;9.20;;;5.83;;
7205;SDS011;3644;53.480;10.004;2023-05-07T01:47:41;13.60;;;5.40;;
7205;SDS011;3644;53.480;10.004;2023-05-07T01:50:07;15.07;;;5.57;;
7205;SDS011;3644;53.480;10.004;2023-05-07T01:52:34;7.97;;;6.80;;
7205;SDS011;3644;53.480;10.004;2023-05-07T01:54:59;7.27;;;6.03;;
7205;SDS011;3644;53.480;10.004;2023-05-07T01:57:25;10.83;;;7.13;;
7205;SDS011;3644;53.480;10.004;2023-05-07T01:59:50;8.83;;;6.77;;
7205;SDS011;3644;53.480;10.004;2023-05-07T02:02:16;9.43;;;6.80;;
7205;SDS011;3644;53.480;10.004;2023-05-07T02:04:41;9.33;;;6.93;;
7205;SDS011;3644;53.480;10.004;2023-05-07T02:07:07;8.60;;;6.40;;
7205;SDS011;3644;53.480;10.004;2023-05-07T02:09:32;7.70;;;6.80;;
7205;SDS011;3644;53.480;10.004;2023-05-07T02:11:58;8.90;;;7.23;;
7205;SDS011;3644;53.480;10.004;2023-05-07T02:14:23;7.07;;;6.27;;
7205;SDS011;3644;53.480;10.004;2023-05-07T02:16:50;8.07;;;6.17;;
7205;SDS011;3644;53.480;10.004;2023-05-07T02:19:16;11.43;;;7.40;;
7205;SDS011;3644;53.480;10.004;2023-05-07T02:21:41;10.13;;;6.87;;
7205;SDS011;3644;53.480;10.004;2023-05-07T02:24:07;7.83;;;6.53;;
7205;SDS011;3644;53.480;10.004;2023-05-07T02:26:32;9.37;;;7.00;;
7205;SDS011;3644;53.480;10.004;2023-05-07T02:28:59;9.80;;;7.57;;
7205;SDS011;3644;53.480;10.004;2023-05-07T02:31:24;9.33;;;7.20;;
7205;SDS011;3644;53.480;10.004;2023-05-07T02:33:50;10.37;;;8.07;;
7205;SDS011;3644;53.480;10.004;2023-05-07T02:36:15;9.40;;;6.67;;
7205;SDS011;3644;53.480;10.004;2023-05-07T02:38:41;11.70;;;7.63;;
7205;SDS011;3644;53.480;10.004;2023-05-07T02:41:06;11.03;;;7.03;;
7205;SDS011;3644;53.480;10.004;2023-05-07T02:43:32;14.27;;;6.67;;
7205;SDS011;3644;53.480;10.004;2023-05-07T02:46:01;10.10;;;6.60;;
7205;SDS011;3644;53.480;10.004;2023-05-07T02:48:27;9.63;;;7.57;;
7205;SDS011;3644;53.480;10.004;2023-05-07T02:50:53;11.40;;;8.00;;
7205;SDS011;3644;53.480;10.004;2023-05-07T02:53:18;11.77;;;7.80;;
7205;SDS011;3644;53.480;10.004;2023-05-07T02:55:44;13.07;;;7.87;;
7205;SDS011;3644;53.480;10.004;2023-05-07T02:58:09;9.03;;;7.03;;
7205;SDS011;3644;53.480;10.004;2023-05-07T03:00:35;12.37;;;8.60;;
7205;SDS011;3644;53.480;10.004;2023-05-07T03:03:00;9.80;;;7.60;;
7205;SDS011;3644;53.480;10.004;2023-05-07T03:05:26;12.43;;;8.77;;
7205;SDS011;3644;53.480;10.004;2023-05-07T03:07:51;12.40;;;8.10;;
7205;SDS011;3644;53.480;10.004;2023-05-07T03:10:17;12.87;;;8.70;;
7205;SDS011;3644;53.480;10.004;2023-05-07T03:12:43;9.87;;;7.20;;
7205;SDS011;3644;53.480;10.004;2023-05-07T03:15:09;9.47;;;7.77;;
7205;SDS011;3644;53.480;10.004;2023-05-07T03:17:36;11.70;;;7.90;;
7205;SDS011;3644;53.480;10.004;2023-05-07T03:20:01;13.93;;;8.17;;
7205;SDS011;3644;53.480;10.004;2023-05-07T03:22:27;11.43;;;8.73;;
7205;SDS011;3644;53.480;10.004;2023-05-07T03:24:53;10.70;;;8.20;;
7205;SDS011;3644;53.480;10.004;2023-05-07T03:27:18;12.80;;;8.80;;
7205;SDS011;3644;53.480;10.004;2023-05-07T03:29:44;14.77;;;8.90;;
7205;SDS011;3644;53.480;10.004;2023-05-07T03:32:09;12.93;;;7.47;;
7205;SDS011;3644;53.480;10.004;2023-05-07T03:34:35;17.57;;;8.10;;
7205;SDS011;3644;53.480;10.004;2023-05-07T03:37:01;11.90;;;7.73;;
7205;SDS011;3644;53.480;10.004;2023-05-07T03:39:26;11.17;;;7.70;;
7205;SDS011;3644;53.480;10.004;2023-05-07T03:41:52;11.60;;;8.40;;
7205;SDS011;3644;53.480;10.004;2023-05-07T03:44:18;11.70;;;8.97;;
7205;SDS011;3644;53.480;10.004;2023-05-07T03:46:43;12.90;;;8.37;;
7205;SDS011;3644;53.480;10.004;2023-05-07T03:49:09;13.17;;;7.90;;
7205;SDS011;3644;53.480;10.004;2023-05-07T03:51:34;12.17;;;8.00;;
7205;SDS011;3644;53.480;10.004;2023-05-07T03:54:01;13.60;;;8.37;;
7205;SDS011;3644;53.480;10.004;2023-05-07T03:56:26;12.10;;;8.97;;
7205;SDS011;3644;53.480;10.004;2023-05-07T03:58:52;9.00;;;7.23;;
7205;SDS011;3644;53.480;10.004;2023-05-07T04:01:19;9.90;;;7.70;;
7205;SDS011;3644;53.480;10.004;2023-05-07T04:03:44;11.73;;;8.13;;
7205;SDS011;3644;53.480;10.004;2023-05-07T04:06:10;11.07;;;9.00;;
7205;SDS011;3644;53.480;10.004;2023-05-07T04:08:35;12.13;;;8.87;;
7205;SDS011;3644;53.480;10.004;2023-05-07T04:11:01;11.10;;;7.77;;
7205;SDS011;3644;53.480;10.004;2023-05-07T04:13:27;14.00;;;8.87;;
7205;SDS011;3644;53.480;10.004;2023-05-07T04:15:52;10.60;;;8.27;;
7205;SDS011;3644;53.480;10.004;2023-05-07T04:18:19;9.00;;;7.13;;
7205;SDS011;3644;53.480;10.004;2023-05-07T04:20:46;12.80;;;8.60;;
7205;SDS011;3644;53.480;10.004;2023-05-07T04:23:12;9.10;;;7.80;;
7205;SDS011;3644;53.480;10.004;2023-05-07T04:25:37;11.13;;;7.40;;
7205;SDS011;3644;53.480;10.004;2023-05-07T04:28:03;10.63;;;7.63;;
7205;SDS011;3644;53.480;10.004;2023-05-07T04:30:29;13.67;;;7.10;;
7205;SDS011;3644;53.480;10.004;2023-05-07T04:32:54;11.50;;;7.87;;
7205;SDS011;3644;53.480;10.004;2023-05-07T04:35:21;11.03;;;7.57;;
7205;SDS011;3644;53.480;10.004;2023-05-07T04:37:46;10.77;;;7.43;;
7205;SDS011;3644;53.480;10.004;2023-05-07T04:40:12;9.17;;;7.53;;
7205;SDS011;3644;53.480;10.004;2023-05-07T04:42:38;12.30;;;8.60;;
7205;SDS011;3644;53.480;10.004;2023-05-07T04:45:03;9.37;;;7.47;;
7205;SDS011;3644;53.480;10.004;2023-05-07T04:47:30;13.90;;;9.03;;
7205;SDS011;3644;53.480;10.004;2023-05-07T04:49:55;8.80;;;6.60;;
7205;SDS011;3644;53.480;10.004;2023-05-07T04:52:22;12.50;;;8.50;;
7205;SDS011;3644;53.480;10.004;2023-05-07T04:54:47;10.37;;;8.17;;
7205;SDS011;3644;53.480;10.004;2023-05-07T04:57:13;11.20;;;7.10;;
7205;SDS011;3644;53.480;10.004;2023-05-07T04:59:38;11.67;;;8.53;;
7205;SDS011;3644;53.480;10.004;2023-05-07T05:02:04;11.67;;;8.40;;
7205;SDS011;3644;53.480;10.004;2023-05-07T05:04:29;11.50;;;7.97;;
7205;SDS011;3644;53.480;10.004;2023-05-07T05:06:55;10.83;;;7.43;;
7205;SDS011;3644;53.480;10.004;2023-05-07T05:09:21;10.00;;;7.60;;
7205;SDS011;3644;53.480;10.004;2023-05-07T05:11:46;11.10;;;7.60;;
7205;SDS011;3644;53.480;10.004;2023-05-07T05:14:12;10.13;;;7.77;;
7205;SDS011;3644;53.480;10.004;2023-05-07T05:16:38;12.10;;;8.47;;
7205;SDS011;3644;53.480;10.004;2023-05-07T05:19:03;12.00;;;7.47;;
7205;SDS011;3644;53.480;10.004;2023-05-07T05:21:29;13.07;;;8.10;;
7205;SDS011;3644;53.480;10.004;2023-05-07T05:23:54;11.93;;;7.97;;
7205;SDS011;3644;53.480;10.004;2023-05-07T05:26:20;11.90;;;7.97;;
7205;SDS011;3644;53.480;10.004;2023-05-07T05:28:49;10.40;;;7.23;;
7205;SDS011;3644;53.480;10.004;2023-05-07T05:31:15;12.97;;;7.00;;
7205;SDS011;3644;53.480;10.004;2023-05-07T05:33:41;12.03;;;8.30;;
7205;SDS011;3644;53.480;10.004;2023-05-07T05:36:08;10.57;;;7.63;;
7205;SDS011;3644;53.480;10.004;2023-05-07T05:38:35;15.97;;;9.80;;
7205;SDS011;3644;53.480;10.004;2023-05-07T05:41:01;11.60;;;7.63;;
7205;SDS011;3644;53.480;10.004;2023-05-07T05:43:26;13.67;;;9.43;;
7205;SDS011;3644;53.480;10.004;2023-05-07T05:45:51;12.30;;;7.50;;
7205;SDS011;3644;53.480;10.004;2023-05-07T05:48:17;10.40;;;7.50;;
7205;SDS011;3644;53.480;10.004;2023-05-07T05:50:42;14.07;;;9.83;;
7205;SDS011;3644;53.480;10.004;2023-05-07T05:53:08;13.03;;;8.50;;
7205;SDS011;3644;53.480;10.004;2023-05-07T05:55:33;14.17;;;8.73;;
7205;SDS011;3644;53.480;10.004;2023-05-07T05:58:02;13.30;;;7.93;;
7205;SDS011;3644;53.480;10.004;2023-05-07T06:00:28;13.57;;;8.33;;
7205;SDS011;3644;53.480;10.004;2023-05-07T06:02:54;11.57;;;8.27;;
7205;SDS011;3644;53.480;10.004;2023-05-07T06:05:19;10.20;;;7.33;;
7205;SDS011;3644;53.480;10.004;2023-05-07T06:07:45;10.43;;;7.77;;
7205;SDS011;3644;53.480;10.004;2023-05-07T06:10:10;9.33;;;6.67;;
7205;SDS011;3644;53.480;10.004;2023-05-07T06:12:36;11.50;;;8.00;;
7205;SDS011;3644;53.480;10.004;2023-05-07T06:15:02;9.93;;;8.13;;
7205;SDS011;3644;53.480;10.004;2023-05-07T06:17:27;9.80;;;7.20;;
7205;SDS011;3644;53.480;10.004;2023-05-07T06:19:53;9.43;;;7.13;;
7205;SDS011;3644;53.480;10.004;2023-05-07T06:22:18;10.53;;;7.33;;
7205;SDS011;3644;53.480;10.004;2023-05-07T06:24:44;11.83;;;7.77;;
7205;SDS011;3644;53.480;10.004;2023-05-07T06:27:10;9.70;;;8.47;;
7205;SDS011;3644;53.480;10.004;2023-05-07T06:29:35;12.80;;;7.60;;
7205;SDS011;3644;53.480;10.004;2023-05-07T06:32:10;12.33;;;7.50;;
7205;SDS011;3644;53.480;10.004;2023-05-07T06:34:37;10.10;;;7.57;;
7205;SDS011;3644;53.480;10.004;2023-05-07T06:37:04;9.47;;;7.37;;
7205;SDS011;3644;53.480;10.004;2023-05-07T06:39:30;15.53;;;7.30;;
7205;SDS011;3644;53.480;10.004;2023-05-07T06:41:56;9.30;;;7.07;;
7205;SDS011;3644;53.480;10.004;2023-05-07T06:44:22;9.17;;;7.50;;
7205;SDS011;3644;53.480;10.004;2023-05-07T06:46:47;10.80;;;7.07;;
7205;SDS011;3644;53.480;10.004;2023-05-07T06:49:13;10.30;;;8.17;;
7205;SDS011;3644;53.480;10.004;2023-05-07T06:51:39;7.80;;;6.60;;
7205;SDS011;3644;53.480;10.004;2023-05-07T06:54:04;7.90;;;6.63;;
7205;SDS011;3644;53.480;10.004;2023-05-07T06:56:30;11.47;;;7.70;;
7205;SDS011;3644;53.480;10.004;2023-05-07T06:58:56;13.83;;;8.70;;
7205;SDS011;3644;53.480;10.004;2023-05-07T07:01:22;10.80;;;7.80;;
7205;SDS011;3644;53.480;10.004;2023-05-07T07:03:47;15.00;;;9.03;;
7205;SDS011;3644;53.480;10.004;2023-05-07T07:06:13;10.07;;;7.63;;
7205;SDS011;3644;53.480;10.004;2023-05-07T07:08:39;15.50;;;8.70;;
7205;SDS011;3644;53.480;10.004;2023-05-07T07:11:05;14.50;;;9.40;;
7205;SDS011;3644;53.480;10.004;2023-05-07T07:13:31;16.13;;;9.10;;
7205;SDS011;3644;53.480;10.004;2023-05-07T07:15:56;11.70;;;7.30;;
7205;SDS011;3644;53.480;10.004;2023-05-07T07:18:22;12.77;;;7.50;;
7205;SDS011;3644;53.480;10.004;2023-05-07T07:20:47;8.50;;;7.27;;
7205;SDS011;3644;53.480;10.004;2023-05-07T07:23:13;14.60;;;8.10;;
7205;SDS011;3644;53.480;10.004;2023-05-07T07:25:39;9.13;;;6.73;;
7205;SDS011;3644;53.480;10.004;2023-05-07T07:28:05;13.07;;;6.83;;
7205;SDS011;3644;53.480;10.004;2023-05-07T07:30:30;10.30;;;7.03;;
7205;SDS011;3644;53.480;10.004;2023-05-07T07:32:56;5.20;;;4.63;;
7205;SDS011;3644;53.480;10.004;2023-05-07T07:35:27;7.83;;;5.70;;
7205;SDS011;3644;53.480;10.004;2023-05-07T07:37:55;5.83;;;5.10;;
7205;SDS011;3644;53.480;10.004;2023-05-07T07:40:21;5.73;;;5.13;;
7205;SDS011;3644;53.480;10.004;2023-05-07T07:42:47;7.80;;;5.40;;
7205;SDS011;3644;53.480;10.004;2023-05-07T07:45:12;8.10;;;5.47;;
7205;SDS011;3644;53.480;10.004;2023-05-07T07:47:38;7.13;;;5.10;;
7205;SDS011;3644;53.480;10.004;2023-05-07T07:50:05;9.27;;;5.57;;
7205;SDS011;3644;53.480;10.004;2023-05-07T07:52:31;15.47;;;6.17;;
7205;SDS011;3644;53.480;10.004;2023-05-07T07:54:56;10.87;;;5.43;;
7205;SDS011;3644;53.480;10.004;2023-05-07T07:57:22;12.73;;;6.50;;
7205;SDS011;3644;53.480;10.004;2023-05-07T07:59:47;7.93;;;7.03;;
7205;SDS011;3644;53.480;10.004;2023-05-07T08:02:14;8.70;;;6.20;;
7205;SDS011;3644;53.480;10.004;2023-05-07T08:04:39;10.00;;;6.50;;
7205;SDS011;3644;53.480;10.004;2023-05-07T08:07:05;8.47;;;5.33;;
7205;SDS011;3644;53.480;10.004;2023-05-07T08:09:30;6.57;;;5.47;;
7205;SDS011;3644;53.480;10.004;2023-05-07T08:11:56;7.93;;;5.50;;
7205;SDS011;3644;53.480;10.004;2023-05-07T08:14:22;5.80;;;4.77;;
7205;SDS011;3644;53.480;10.004;2023-05-07T08:16:47;6.57;;;4.60;;
7205;SDS011;3644;53.480;10.004;2023-05-07T08:19:13;6.90;;;4.97;;
7205;SDS011;3644;53.480;10.004;2023-05-07T08:21:39;5.90;;;4.77;;
7205;SDS011;3644;53.480;10.004;2023-05-07T08:24:05;7.57;;;4.90;;
7205;SDS011;3644;53.480;10.004;2023-05-07T08:26:31;7.57;;;5.17;;
7205;SDS011;3644;53.480;10.004;2023-05-07T08:28:56;6.17;;;4.43;;
7205;SDS011;3644;53.480;10.004;2023-05-07T08:31:22;6.50;;;5.63;;
7205;SDS011;3644;53.480;10.004;2023-05-07T08:33:47;6.13;;;4.77;;
7205;SDS011;3644;53.480;10.004;2023-05-07T08:36:13;7.70;;;5.67;;
7205;SDS011;3644;53.480;10.004;2023-05-07T08:38:38;6.27;;;4.40;;
7205;SDS011;3644;53.480;10.004;2023-05-07T08:41:05;6.50;;;5.37;;
7205;SDS011;3644;53.480;10.004;2023-05-07T08:43:32;7.03;;;5.17;;
7205;SDS011;3644;53.480;10.004;2023-05-07T08:46:01;5.30;;;4.60;;
7205;SDS011;3644;53.480;10.004;2023-05-07T08:48:27;6.07;;;5.00;;
7205;SDS011;3644;53.480;10.004;2023-05-07T08:50:55;6.23;;;5.03;;
7205;SDS011;3644;53.480;10.004;2023-05-07T08:53:20;7.73;;;5.47;;
7205;SDS011;3644;53.480;10.004;2023-05-07T08:55:46;9.37;;;5.23;;
7205;SDS011;3644;53.480;10.004;2023-05-07T08:58:12;7.90;;;5.47;;
7205;SDS011;3644;53.480;10.004;2023-05-07T09:00:38;12.23;;;5.23;;
7205;SDS011;3644;53.480;10.004;2023-05-07T09:03:06;9.33;;;6.53;;
7205;SDS011;3644;53.480;10.004;2023-05-07T09:05:32;10.70;;;4.60;;
7205;SDS011;3644;53.480;10.004;2023-05-07T09:08:02;8.07;;;5.73;;
7205;SDS011;3644;53.480;10.004;2023-05-07T09:10:28;6.47;;;5.33;;
7205;SDS011;3644;53.480;10.004;2023-05-07T09:12:54;8.67;;;5.40;;
7205;SDS011;3644;53.480;10.004;2023-05-07T09:15:20;7.00;;;5.27;;
7205;SDS011;3644;53.480;10.004;2023-05-07T09:17:45;5.67;;;5.10;;
7205;SDS011;3644;53.480;10.004;2023-05-07T09:20:11;5.73;;;5.23;;
7205;SDS011;3644;53.480;10.004;2023-05-07T09:22:37;7.17;;;5.17;;
7205;SDS011;3644;53.480;10.004;2023-05-07T09:25:03;6.87;;;5.00;;
7205;SDS011;3644;53.480;10.004;2023-05-07T09:27:29;6.17;;;4.50;;
7205;SDS011;3644;53.480;10.004;2023-05-07T09:29:55;6.10;;;5.43;;
7205;SDS011;3644;53.480;10.004;2023-05-07T09:32:21;5.27;;;4.60;;
7205;SDS011;3644;53.480;10.004;2023-05-07T09:34:46;6.27;;;5.30;;
7205;SDS011;3644;53.480;10.004;2023-05-07T09:37:12;5.77;;;5.13;;
7205;SDS011;3644;53.480;10.004;2023-05-07T09:39:42;5.40;;;4.90;;
7205;SDS011;3644;53.480;10.004;2023-05-07T09:42:09;7.53;;;5.17;;
7205;SDS011;3644;53.480;10.004;2023-05-07T09:44:36;7.73;;;5.60;;
7205;SDS011;3644;53.480;10.004;2023-05-07T09:47:06;6.00;;;5.20;;
7205;SDS011;3644;53.480;10.004;2023-05-07T09:49:36;8.37;;;5.47;;
7205;SDS011;3644;53.480;10.004;2023-05-07T09:52:05;5.67;;;4.87;;
7205;SDS011;3644;53.480;10.004;2023-05-07T09:54:33;4.90;;;4.47;;
7205;SDS011;3644;53.480;10.004;2023-05-07T09:57:03;6.57;;;4.60;;
7205;SDS011;3644;53.480;10.004;2023-05-07T09:59:31;7.13;;;4.97;;
7205;SDS011;3644;53.480;10.004;2023-05-07T10:01:58;5.77;;;4.90;;
7205;SDS011;3644;53.480;10.004;2023-05-07T10:04:25;9.10;;;5.40;;
7205;SDS011;3644;53.480;10.004;2023-05-07T10:06:51;5.83;;;4.90;;
7205;SDS011;3644;53.480;10.004;2023-05-07T10:09:18;7.87;;;5.67;;
7205;SDS011;3644;53.480;10.004;2023-05-07T10:11:44;6.43;;;5.67;;
7205;SDS011;3644;53.480;10.004;2023-05-07T10:14:11;6.30;;;5.70;;
7205;SDS011;3644;53.480;10.004;2023-05-07T10:16:37;6.23;;;5.00;;
7205;SDS011;3644;53.480;10.004;2023-05-07T10:19:03;6.03;;;5.20;;
7205;SDS011;3644;53.480;10.004;2023-05-07T10:21:29;7.90;;;5.73;;
7205;SDS011;3644;53.480;10.004;2023-05-07T10:24:03;6.90;;;5.47;;
7205;SDS011;3644;53.480;10.004;2023-05-07T10:26:45;5.30;;;4.50;;
7205;SDS011;3644;53.480;10.004;2023-05-07T10:29:15;6.87;;;4.87;;
7205;SDS011;3644;53.480;10.004;2023-05-07T10:31:58;8.77;;;5.97;;
7205;SDS011;3644;53.480;10.004;2023-05-07T10:34:44;10.73;;;6.67;;
7205;SDS011;3644;53.480;10.004;2023-05-07T10:37:12;7.87;;;5.37;;
7205;SDS011;3644;53.480;10.004;2023-05-07T10:39:38;4.20;;;3.77;;
7205;SDS011;3644;53.480;10.004;2023-05-07T10:42:07;5.70;;;4.70;;
7205;SDS011;3644;53.480;10.004;2023-05-07T10:44:33;4.53;;;3.90;;
7205;SDS011;3644;53.480;10.004;2023-05-07T10:47:04;5.20;;;4.70;;
7205;SDS011;3644;53.480;10.004;2023-05-07T10:52:12;6.23;;;4.10;;
7205;SDS011;3644;53.480;10.004;2023-05-07T10:54:42;6.03;;;4.40;;
7205;SDS011;3644;53.480;10.004;2023-05-07T11:00:04;7.70;;;4.87;;
7205;SDS011;3644;53.480;10.004;2023-05-07T11:05:24;6.63;;;4.83;;
7205;SDS011;3644;53.480;10.004;2023-05-07T11:07:54;6.70;;;4.37;;
7205;SDS011;3644;53.480;10.004;2023-05-07T11:13:15;5.90;;;4.50;;
7205;SDS011;3644;53.480;10.004;2023-05-07T11:15:42;5.07;;;4.53;;
7205;SDS011;3644;53.480;10.004;2023-05-07T11:18:10;5.93;;;4.17;;
7205;SDS011;3644;53.480;10.004;2023-05-07T11:24:08;4.13;;;3.73;;
7205;SDS011;3644;53.480;10.004;2023-05-07T11:26:13;12.43;;;4.57;;
7205;SDS011;3644;53.480;10.004;2023-05-07T11:28:41;4.47;;;4.07;;
7205;SDS011;3644;53.480;10.004;2023-05-07T11:31:07;5.70;;;4.10;;
7205;SDS011;3644;53.480;10.004;2023-05-07T11:33:33;5.97;;;4.90;;
7205;SDS011;3644;53.480;10.004;2023-05-07T11:36:00;4.27;;;3.87;;
7205;SDS011;3644;53.480;10.004;2023-05-07T11:38:34;5.77;;;4.00;;
7205;SDS011;3644;53.480;10.004;2023-05-07T11:41:01;5.20;;;4.13;;
7205;SDS011;3644;53.480;10.004;2023-05-07T11:43:29;4.93;;;4.43;;
7205;SDS011;3644;53.480;10.004;2023-05-07T11:46:04;4.73;;;4.07;;
7205;SDS011;3644;53.480;10.004;2023-05-07T11:48:34;4.43;;;3.73;;
7205;SDS011;3644;53.480;10.004;2023-05-07T11:51:00;4.37;;;3.97;;
7205;SDS011;3644;53.480;10.004;2023-05-07T11:53:26;4.53;;;3.73;;
7205;SDS011;3644;53.480;10.004;2023-05-07T11:55:53;7.00;;;4.17;;
7205;SDS011;3644;53.480;10.004;2023-05-07T11:58:22;6.30;;;3.80;;
7205;SDS011;3644;53.480;10.004;2023-05-07T12:00:53;6.00;;;4.73;;
7205;SDS011;3644;53.480;10.004;2023-05-07T12:03:19;3.57;;;3.27;;
7205;SDS011;3644;53.480;10.004;2023-05-07T12:05:45;4.20;;;3.40;;
7205;SDS011;3644;53.480;10.004;2023-05-07T12:08:15;4.30;;;3.90;;
7205;SDS011;3644;53.480;10.004;2023-05-07T12:10:42;4.63;;;3.70;;
7205;SDS011;3644;53.480;10.004;2023-05-07T12:13:18;4.93;;;4.03;;
7205;SDS011;3644;53.480;10.004;2023-05-07T12:15:44;4.90;;;4.00;;
7205;SDS011;3644;53.480;10.004;2023-05-07T12:18:11;3.17;;;2.90;;
7205;SDS011;3644;53.480;10.004;2023-05-07T12:20:37;4.43;;;3.67;;
7205;SDS011;3644;53.480;10.004;2023-05-07T12:23:04;4.50;;;3.70;;
7205;SDS011;3644;53.480;10.004;2023-05-07T12:25:31;5.57;;;3.00;;
7205;SDS011;3644;53.480;10.004;2023-05-07T12:27:57;7.17;;;3.23;;
7205;SDS011;3644;53.480;10.004;2023-05-07T12:30:24;3.73;;;3.33;;
7205;SDS011;3644;53.480;10.004;2023-05-07T12:32:52;3.57;;;3.10;;
7205;SDS011;3644;53.480;10.004;2023-05-07T12:35:25;3.50;;;3.20;;
7205;SDS011;3644;53.480;10.004;2023-05-07T12:37:58;3.30;;;3.00;;
7205;SDS011;3644;53.480;10.004;2023-05-07T12:40:35;3.53;;;3.23;;
7205;SDS011;3644;53.480;10.004;2023-05-07T12:43:02;3.43;;;3.10;;
7205;SDS011;3644;53.480;10.004;2023-05-07T12:45:28;2.67;;;2.43;;
7205;SDS011;3644;53.480;10.004;2023-05-07T12:47:53;3.37;;;3.07;;
7205;SDS011;3644;53.480;10.004;2023-05-07T12:50:19;3.40;;;2.67;;
7205;SDS011;3644;53.480;10.004;2023-05-07T12:52:46;2.90;;;2.70;;
7205;SDS011;3644;53.480;10.004;2023-05-07T12:55:16;5.47;;;2.90;;
7205;SDS011;3644;53.480;10.004;2023-05-07T12:57:42;3.90;;;2.70;;
7205;SDS011;3644;53.480;10.004;2023-05-07T13:00:12;3.33;;;3.00;;
7205;SDS011;3644;53.480;10.004;2023-05-07T13:02:39;2.27;;;2.10;;
7205;SDS011;3644;53.480;10.004;2023-05-07T13:05:05;3.27;;;2.67;;
7205;SDS011;3644;53.480;10.004;2023-05-07T13:07:32;2.97;;;2.63;;
7205;SDS011;3644;53.480;10.004;2023-05-07T13:09:57;2.93;;;2.30;;
7205;SDS011;3644;53.480;10.004;2023-05-07T13:12:22;2.77;;;2.53;;
7205;SDS011;3644;53.480;10.004;2023-05-07T13:14:48;2.93;;;2.63;;
7205;SDS011;3644;53.480;10.004;2023-05-07T13:17:13;2.80;;;2.50;;
7205;SDS011;3644;53.480;10.004;2023-05-07T13:19:39;3.23;;;3.03;;
7205;SDS011;3644;53.480;10.004;2023-05-07T13:22:05;3.13;;;2.50;;
7205;SDS011;3644;53.480;10.004;2023-05-07T13:24:30;2.47;;;2.27;;
7205;SDS011;3644;53.480;10.004;2023-05-07T13:26:56;3.30;;;2.60;;
7205;SDS011;3644;53.480;10.004;2023-05-07T13:29:21;5.20;;;2.53;;
7205;SDS011;3644;53.480;10.004;2023-05-07T13:31:54;2.33;;;2.13;;
7205;SDS011;3644;53.480;10.004;2023-05-07T13:34:23;2.23;;;2.03;;
7205;SDS011;3644;53.480;10.004;2023-05-07T13:36:48;2.23;;;2.10;;
7205;SDS011;3644;53.480;10.004;2023-05-07T13:39:14;3.83;;;3.00;;
7205;SDS011;3644;53.480;10.004;2023-05-07T13:41:40;4.77;;;2.90;;
7205;SDS011;3644;53.480;10.004;2023-05-07T13:44:05;5.03;;;2.80;;
7205;SDS011;3644;53.480;10.004;2023-05-07T13:46:31;2.90;;;2.03;;
7205;SDS011;3644;53.480;10.004;2023-05-07T13:48:57;3.73;;;2.73;;
7205;SDS011;3644;53.480;10.004;2023-05-07T13:51:22;3.53;;;3.00;;
7205;SDS011;3644;53.480;10.004;2023-05-07T13:53:48;2.40;;;2.17;;
7205;SDS011;3644;53.480;10.004;2023-05-07T13:56:14;3.80;;;2.63;;
7205;SDS011;3644;53.480;10.004;2023-05-07T13:58:40;1.73;;;1.63;;
7205;SDS011;3644;53.480;10.004;2023-05-07T14:01:06;2.80;;;2.20;;
7205;SDS011;3644;53.480;10.004;2023-05-07T14:03:31;1.93;;;1.83;;
7205;SDS011;3644;53.480;10.004;2023-05-07T14:05:58;4.37;;;3.17;;
7205;SDS011;3644;53.480;10.004;2023-05-07T14:08:26;2.93;;;2.50;;
7205;SDS011;3644;53.480;10.004;2023-05-07T14:10:52;6.13;;;3.27;;
7205;SDS011;3644;53.480;10.004;2023-05-07T14:13:17;2.50;;;1.97;;
7205;SDS011;3644;53.480;10.004;2023-05-07T14:15:43;2.50;;;2.13;;
7205;SDS011;3644;53.480;10.004;2023-05-07T14:18:13;4.80;;;2.40;;
7205;SDS011;3644;53.480;10.004;2023-05-07T14:20:39;2.90;;;2.60;;
7205;SDS011;3644;53.480;10.004;2023-05-07T14:23:04;2.23;;;1.73;;
7205;SDS011;3644;53.480;10.004;2023-05-07T14:25:30;3.60;;;2.20;;
7205;SDS011;3644;53.480;10.004;2023-05-07T14:27:55;2.50;;;2.30;;
7205;SDS011;3644;53.480;10.004;2023-05-07T14:30:21;2.40;;;2.03;;
7205;SDS011;3644;53.480;10.004;2023-05-07T14:32:49;5.70;;;2.20;;
7205;SDS011;3644;53.480;10.004;2023-05-07T14:35:15;3.47;;;2.07;;
7205;SDS011;3644;53.480;10.004;2023-05-07T14:37:40;2.33;;;2.13;;
7205;SDS011;3644;53.480;10.004;2023-05-07T14:40:07;2.63;;;2.43;;
7205;SDS011;3644;53.480;10.004;2023-05-07T14:42:33;1.53;;;1.43;;
7205;SDS011;3644;53.480;10.004;2023-05-07T14:44:59;1.77;;;1.67;;
7205;SDS011;3644;53.480;10.004;2023-05-07T14:47:24;1.93;;;1.63;;
7205;SDS011;3644;53.480;10.004;2023-05-07T14:49:50;2.90;;;2.20;;
7205;SDS011;3644;53.480;10.004;2023-05-07T14:52:16;5.40;;;1.60;;
7205;SDS011;3644;53.480;10.004;2023-05-07T14:54:41;2.40;;;1.60;;
7205;SDS011;3644;53.480;10.004;2023-05-07T14:57:08;2.00;;;1.73;;
7205;SDS011;3644;53.480;10.004;2023-05-07T14:59:35;2.13;;;2.03;;
7205;SDS011;3644;53.480;10.004;2023-05-07T15:02:00;1.87;;;1.60;;
7205;SDS011;3644;53.480;10.004;2023-05-07T15:04:26;2.70;;;2.10;;